createdAt,value
2023-05-23T00:01:40.019Z,6.95
2023-05-23T00:04:06.990Z,6.88
2023-05-23T00:06:34.630Z,7.07
2023-05-23T00:09:01.901Z,7.40
2023-05-23T00:11:29.473Z,6.93
2023-05-23T00:13:57.702Z,7.55
2023-05-23T00:16:24.648Z,7.22
2023-05-23T00:18:52.031Z,7.85
2023-05-23T00:21:18.883Z,7.57
2023-05-23T00:23:45.711Z,7.55
2023-05-23T00:26:12.538Z,7.93
2023-05-23T00:28:39.330Z,7.47
2023-05-23T00:31:06.167Z,7.55
2023-05-23T00:33:34.449Z,7.53
2023-05-23T00:36:01.232Z,7.35
2023-05-23T00:38:28.647Z,7.97
2023-05-23T00:40:55.494Z,7.82
2023-05-23T00:43:22.909Z,8.05
2023-05-23T00:45:50.034Z,7.45
2023-05-23T00:48:17.224Z,7.88
2023-05-23T00:50:44.247Z,7.60
2023-05-23T00:53:11.126Z,7.72
2023-05-23T00:55:39.736Z,7.72
2023-05-23T00:58:06.793Z,7.75
2023-05-23T01:00:34.905Z,7.07
2023-05-23T01:03:01.938Z,7.82
2023-05-23T01:05:28.806Z,7.53
2023-05-23T01:07:55.817Z,7.53
2023-05-23T01:10:28.301Z,7.80
2023-05-23T01:16:49.182Z,7.38
2023-05-23T01:19:37.086Z,7.75
2023-05-23T01:22:16.917Z,7.88
2023-05-23T01:25:05.016Z,7.75
2023-05-23T01:27:38.203Z,7.13
2023-05-23T01:30:07.883Z,7.55
2023-05-23T01:32:37.131Z,7.88
2023-05-23T01:35:05.158Z,7.55
2023-05-23T01:37:32.032Z,8.00
2023-05-23T01:39:58.815Z,7.63
2023-05-23T01:42:25.698Z,7.55
2023-05-23T01:44:52.658Z,7.65
2023-05-23T01:47:21.090Z,7.55
2023-05-23T01:49:48.567Z,7.57
2023-05-23T01:52:15.717Z,7.85
2023-05-23T01:54:43.984Z,7.80
2023-05-23T01:57:11.476Z,7.50
2023-05-23T01:59:39.140Z,8.25
2023-05-23T02:02:06.585Z,7.90
2023-05-23T02:04:33.969Z,7.00
2023-05-23T02:07:01.117Z,7.97
2023-05-23T02:09:27.965Z,7.85
2023-05-23T02:11:54.871Z,7.85
2023-05-23T02:14:21.740Z,7.40
2023-05-23T02:16:48.508Z,7.13
2023-05-23T02:19:15.529Z,7.40
2023-05-23T02:21:42.328Z,7.25
2023-05-23T02:24:09.134Z,7.85
2023-05-23T02:26:35.961Z,7.57
2023-05-23T02:29:03.008Z,7.65
2023-05-23T02:31:30.108Z,7.32
2023-05-23T02:33:56.936Z,7.55
2023-05-23T02:36:23.693Z,7.82
2023-05-23T02:38:50.780Z,8.05
2023-05-23T02:41:17.541Z,7.28
2023-05-23T02:43:47.456Z,7.57
2023-05-23T02:46:14.247Z,7.97
2023-05-23T02:48:41.058Z,8.20
2023-05-23T02:51:08.040Z,7.97
2023-05-23T02:53:34.769Z,7.63
2023-05-23T02:56:01.793Z,7.50
2023-05-23T02:58:28.720Z,7.95
2023-05-23T03:00:55.812Z,7.32
2023-05-23T03:03:22.738Z,7.55
2023-05-23T03:05:49.667Z,7.70
2023-05-23T03:08:16.514Z,7.93
2023-05-23T03:10:43.351Z,7.80
2023-05-23T03:13:10.103Z,7.72
2023-05-23T03:15:36.907Z,8.10
2023-05-23T03:18:03.718Z,7.60
2023-05-23T03:20:30.829Z,8.23
2023-05-23T03:22:57.576Z,8.45
2023-05-23T03:25:24.665Z,8.35
2023-05-23T03:27:51.552Z,7.95
2023-05-23T03:30:18.507Z,8.20
2023-05-23T03:32:45.356Z,8.18
2023-05-23T03:35:12.527Z,7.85
2023-05-23T03:37:39.367Z,8.77
2023-05-23T03:40:07.522Z,7.88
2023-05-23T03:42:34.301Z,8.68
2023-05-23T03:45:01.180Z,7.85
2023-05-23T03:47:28.185Z,9.45
2023-05-23T03:49:54.921Z,7.35
2023-05-23T03:52:21.728Z,7.95
2023-05-23T03:54:48.508Z,8.30
2023-05-23T03:57:15.315Z,7.93
2023-05-23T03:59:42.188Z,7.72
2023-05-23T04:02:08.949Z,8.45
2023-05-23T04:04:36.305Z,7.63
2023-05-23T04:07:03.311Z,9.13
2023-05-23T04:09:30.129Z,7.72
2023-05-23T04:11:58.570Z,8.02
2023-05-23T04:14:25.435Z,7.32
2023-05-23T04:16:52.592Z,7.90
2023-05-23T04:19:19.855Z,8.13
2023-05-23T04:21:46.683Z,7.88
2023-05-23T04:24:13.366Z,7.93
2023-05-23T04:26:40.167Z,7.78
2023-05-23T04:29:07.516Z,7.40
2023-05-23T04:31:34.467Z,7.72
2023-05-23T04:34:02.673Z,7.45
2023-05-23T04:36:30.396Z,7.80
2023-05-23T04:38:57.463Z,8.65
2023-05-23T04:41:24.559Z,7.85
2023-05-23T04:43:54.733Z,7.35
2023-05-23T04:46:27.651Z,7.85
2023-05-23T04:48:55.355Z,8.10
2023-05-23T04:51:22.575Z,7.80
2023-05-23T04:53:49.741Z,8.10
2023-05-23T04:56:19.880Z,7.82
2023-05-23T04:58:48.279Z,7.85
2023-05-23T05:01:15.883Z,8.20
2023-05-23T05:03:42.861Z,7.75
2023-05-23T05:06:09.776Z,7.40
2023-05-23T05:08:37.062Z,7.97
2023-05-23T05:11:03.848Z,8.23
2023-05-23T05:13:30.672Z,7.05
2023-05-23T05:15:57.488Z,7.70
2023-05-23T05:18:24.267Z,7.30
2023-05-23T05:20:51.287Z,7.28
2023-05-23T05:23:18.150Z,8.00
2023-05-23T05:25:44.910Z,6.90
2023-05-23T05:28:11.816Z,6.97
2023-05-23T05:30:39.174Z,7.07
2023-05-23T05:33:07.926Z,7.20
2023-05-23T05:35:35.578Z,7.82
2023-05-23T05:38:05.517Z,7.10
2023-05-23T05:40:32.888Z,8.20
2023-05-23T05:42:59.719Z,7.00
2023-05-23T05:45:26.763Z,6.95
2023-05-23T05:47:53.593Z,6.95
2023-05-23T05:50:20.597Z,7.05
2023-05-23T05:52:47.368Z,7.38
2023-05-23T05:55:14.254Z,6.70
2023-05-23T05:57:41.552Z,6.63
2023-05-23T06:00:15.148Z,6.63
2023-05-23T06:02:51.670Z,6.85
2023-05-23T06:05:18.952Z,7.32
2023-05-23T06:07:48.863Z,7.60
2023-05-23T06:10:16.302Z,7.93
2023-05-23T06:12:43.231Z,6.38
2023-05-23T06:15:10.483Z,7.57
2023-05-23T06:17:37.963Z,7.40
2023-05-23T06:20:05.638Z,6.72
2023-05-23T06:22:32.530Z,7.78
2023-05-23T06:24:59.415Z,6.90
2023-05-23T06:27:26.255Z,7.32
2023-05-23T06:29:53.042Z,7.35
2023-05-23T06:32:19.809Z,7.55
2023-05-23T06:34:46.661Z,6.88
2023-05-23T06:37:13.422Z,7.38
2023-05-23T06:39:40.271Z,7.45
2023-05-23T06:42:07.404Z,7.40
2023-05-23T06:44:34.191Z,7.70
2023-05-23T06:47:01.088Z,7.68
2023-05-23T06:49:27.872Z,7.72
2023-05-23T06:51:54.785Z,7.63
2023-05-23T06:54:21.665Z,8.23
2023-05-23T06:56:48.457Z,7.38
2023-05-23T06:59:15.250Z,7.32
2023-05-23T07:01:42.128Z,7.97
2023-05-23T07:04:08.977Z,7.60
2023-05-23T07:06:36.599Z,7.50
2023-05-23T07:09:04.348Z,7.50
2023-05-23T07:11:31.386Z,7.35
2023-05-23T07:13:59.209Z,6.97
2023-05-23T07:16:26.101Z,7.22
2023-05-23T07:18:52.930Z,7.20
2023-05-23T07:21:19.726Z,6.32
2023-05-23T07:23:46.619Z,6.50
2023-05-23T07:26:13.454Z,6.30
2023-05-23T07:28:40.342Z,6.75
2023-05-23T07:31:09.532Z,6.68
2023-05-23T07:33:36.453Z,7.13
2023-05-23T07:36:03.839Z,7.20
2023-05-23T07:38:30.742Z,6.70
2023-05-23T07:41:09.994Z,7.03
2023-05-23T07:43:38.683Z,6.63
2023-05-23T07:46:05.526Z,7.05
2023-05-23T07:48:32.520Z,6.90
2023-05-23T07:50:59.393Z,6.97
2023-05-23T07:53:26.438Z,7.32
2023-05-23T07:55:53.476Z,6.97
2023-05-23T07:58:20.288Z,7.07
2023-05-23T08:00:47.073Z,6.55
2023-05-23T08:03:14.159Z,7.05
2023-05-23T08:05:40.967Z,6.20
2023-05-23T08:08:07.735Z,6.13
2023-05-23T08:10:34.570Z,6.30
2023-05-23T08:13:04.605Z,7.13
2023-05-23T08:15:31.467Z,6.78
2023-05-23T08:17:59.071Z,6.72
2023-05-23T08:20:31.069Z,7.07
2023-05-23T08:23:02.013Z,6.35
2023-05-23T08:25:32.657Z,6.60
2023-05-23T08:28:00.609Z,6.75
2023-05-23T08:30:28.816Z,6.35
2023-05-23T08:32:56.947Z,6.68
2023-05-23T08:35:24.549Z,6.78
2023-05-23T08:37:52.509Z,6.78
2023-05-23T08:40:21.970Z,7.05
2023-05-23T08:42:50.234Z,6.38
2023-05-23T08:45:17.960Z,7.38
2023-05-23T08:47:46.247Z,7.15
2023-05-23T08:50:20.078Z,6.57
2023-05-23T08:52:57.720Z,6.28
2023-05-23T08:55:29.138Z,7.15
2023-05-23T08:57:57.952Z,6.63
2023-05-23T09:00:26.444Z,6.82
2023-05-23T09:02:54.726Z,6.70
2023-05-23T09:05:22.140Z,6.47
2023-05-23T09:07:49.505Z,6.57
2023-05-23T09:10:22.803Z,7.05
2023-05-23T09:12:49.873Z,6.30
2023-05-23T09:15:17.475Z,6.47
2023-05-23T09:17:45.453Z,6.20
2023-05-23T09:20:17.563Z,6.30
2023-05-23T09:22:48.900Z,5.95
2023-05-23T09:25:16.474Z,5.60
2023-05-23T09:27:46.591Z,6.13
2023-05-23T09:30:15.056Z,6.00
2023-05-23T09:32:42.576Z,5.90
2023-05-23T09:35:14.313Z,6.00
2023-05-23T09:37:46.235Z,5.38
2023-05-23T09:40:15.177Z,5.88
2023-05-23T09:42:47.319Z,5.68
2023-05-23T09:45:15.310Z,5.70
2023-05-23T09:47:52.427Z,5.53
2023-05-23T09:50:20.987Z,5.47
2023-05-23T09:52:48.283Z,5.97
2023-05-23T09:55:15.395Z,5.85
2023-05-23T09:57:44.117Z,6.30
2023-05-23T10:00:15.266Z,5.80
2023-05-23T10:03:00.548Z,5.60
2023-05-23T10:05:47.262Z,5.50
2023-05-23T10:08:31.404Z,5.55
2023-05-23T10:10:58.126Z,5.35
2023-05-23T10:13:29.085Z,5.50
2023-05-23T10:16:02.982Z,5.65
2023-05-23T10:18:31.139Z,5.72
2023-05-23T10:21:04.306Z,5.45
2023-05-23T10:23:31.854Z,5.50
2023-05-23T10:25:58.662Z,5.15
2023-05-23T10:28:27.340Z,5.10
2023-05-23T10:30:54.195Z,5.70
2023-05-23T10:33:22.746Z,5.15
2023-05-23T10:36:10.411Z,5.95
2023-05-23T10:38:47.116Z,5.22
2023-05-23T10:41:29.648Z,6.00
2023-05-23T10:44:25.326Z,5.93
2023-05-23T10:46:57.746Z,5.30
2023-05-23T10:49:45.100Z,5.90
2023-05-23T10:52:16.172Z,5.75
2023-05-23T10:54:53.942Z,5.60
2023-05-23T10:57:22.974Z,5.65
2023-05-23T10:59:53.048Z,5.53
2023-05-23T11:02:27.608Z,5.78
2023-05-23T11:05:16.592Z,6.05
2023-05-23T11:07:43.353Z,5.90
2023-05-23T11:10:17.343Z,6.18
2023-05-23T11:12:45.161Z,6.57
2023-05-23T11:15:17.907Z,6.40
2023-05-23T11:17:56.509Z,6.50
2023-05-23T11:20:31.326Z,6.22
2023-05-23T11:23:03.051Z,6.38
2023-05-23T11:25:43.922Z,6.50
2023-05-23T11:28:12.140Z,6.15
2023-05-23T11:30:39.856Z,5.47
2023-05-23T11:33:09.563Z,5.75
2023-05-23T11:35:37.409Z,6.25
2023-05-23T11:38:05.794Z,5.97
2023-05-23T11:40:34.841Z,5.47
2023-05-23T11:43:04.606Z,4.80
2023-05-23T11:45:32.542Z,3.38
2023-05-23T11:48:00.230Z,3.50
2023-05-23T11:50:27.210Z,3.00
2023-05-23T11:52:55.785Z,3.38
2023-05-23T11:55:23.402Z,4.43
2023-05-23T11:57:52.080Z,5.57
2023-05-23T12:00:19.650Z,6.00
2023-05-23T12:02:49.066Z,5.75
2023-05-23T12:05:16.314Z,5.35
2023-05-23T12:07:45.369Z,5.32
2023-05-23T12:10:12.393Z,5.82
2023-05-23T12:12:40.974Z,6.65
2023-05-23T12:15:09.596Z,6.57
2023-05-23T12:17:44.172Z,6.93
2023-05-23T12:20:11.892Z,6.32
2023-05-23T12:22:38.840Z,7.55
2023-05-23T12:25:10.381Z,6.75
2023-05-23T12:27:37.752Z,7.25
2023-05-23T12:30:07.165Z,7.38
2023-05-23T12:32:34.259Z,7.15
2023-05-23T12:35:01.323Z,6.97
2023-05-23T12:37:28.219Z,7.28
2023-05-23T12:39:55.214Z,7.18
2023-05-23T12:42:22.132Z,6.93
2023-05-23T12:44:53.860Z,6.90
2023-05-23T12:47:20.950Z,7.50
2023-05-23T12:49:48.274Z,7.63
2023-05-23T12:52:15.268Z,7.80
2023-05-23T12:54:42.321Z,8.77
2023-05-23T12:57:09.332Z,8.65
2023-05-23T12:59:36.267Z,7.82
2023-05-23T13:02:03.410Z,8.98
2023-05-23T13:04:32.256Z,9.15
2023-05-23T13:06:59.560Z,8.73
2023-05-23T13:09:26.332Z,8.52
2023-05-23T13:11:53.332Z,9.10
2023-05-23T13:14:20.173Z,9.20
2023-05-23T13:16:47.415Z,9.02
2023-05-23T13:19:14.390Z,8.57
2023-05-23T13:21:41.218Z,8.10
2023-05-23T13:24:09.032Z,7.90
2023-05-23T13:26:35.902Z,9.15
2023-05-23T13:29:02.821Z,9.18
2023-05-23T13:31:29.921Z,8.32
2023-05-23T13:33:56.991Z,7.90
2023-05-23T13:36:23.915Z,8.55
2023-05-23T13:38:50.718Z,8.13
2023-05-23T13:41:17.747Z,8.15
2023-05-23T13:43:44.658Z,7.47
2023-05-23T13:46:12.757Z,8.82
2023-05-23T13:48:39.735Z,9.30
2023-05-23T13:51:06.974Z,8.68
2023-05-23T13:53:33.878Z,9.38
2023-05-23T13:56:00.960Z,8.85
2023-05-23T13:58:28.291Z,8.82
2023-05-23T14:00:56.119Z,8.95
2023-05-23T14:03:23.137Z,8.57
2023-05-23T14:05:50.138Z,9.10
2023-05-23T14:08:17.000Z,9.88
2023-05-23T14:10:44.044Z,10.05
2023-05-23T14:13:12.134Z,9.98
2023-05-23T14:15:39.335Z,9.73
2023-05-23T14:18:06.418Z,9.52
2023-05-23T14:20:33.432Z,9.98
2023-05-23T14:23:00.299Z,9.60
2023-05-23T14:25:27.153Z,10.38
2023-05-23T14:27:53.952Z,10.35
2023-05-23T14:30:20.896Z,10.25
2023-05-23T14:32:47.811Z,10.65
2023-05-23T14:35:14.775Z,9.55
2023-05-23T14:37:41.695Z,9.95
2023-05-23T14:40:10.390Z,10.30
2023-05-23T14:42:37.909Z,10.15
2023-05-23T14:45:05.230Z,9.45
2023-05-23T14:47:32.784Z,10.07
2023-05-23T14:49:59.878Z,9.10
2023-05-23T14:52:26.971Z,9.48
2023-05-23T14:54:53.814Z,9.25
2023-05-23T14:57:20.854Z,8.27
2023-05-23T14:59:47.959Z,8.98
2023-05-23T15:02:14.831Z,8.70
2023-05-23T15:04:42.010Z,9.02
2023-05-23T15:07:08.987Z,9.70
2023-05-23T15:09:35.941Z,8.52
2023-05-23T15:12:03.195Z,8.73
2023-05-23T15:14:32.308Z,8.23
2023-05-23T15:32:29.284Z,9.35
2023-05-23T15:34:56.831Z,9.48
2023-05-23T15:37:24.109Z,9.85
2023-05-23T15:39:50.905Z,8.80
2023-05-23T15:42:25.354Z,9.60
2023-05-23T15:44:53.321Z,9.00
2023-05-23T15:47:34.967Z,9.73
2023-05-23T15:50:01.938Z,9.63
2023-05-23T15:52:32.416Z,9.32
2023-05-23T15:55:07.147Z,8.45
2023-05-23T15:57:41.666Z,7.85
2023-05-23T16:00:10.291Z,8.27
2023-05-23T16:08:09.916Z,7.63
2023-05-23T16:10:39.209Z,7.38
2023-05-23T16:13:24.113Z,7.78
2023-05-23T16:18:49.210Z,7.32
2023-05-23T16:21:29.900Z,7.53
2023-05-23T16:23:57.719Z,7.53
2023-05-23T16:29:05.288Z,6.97
2023-05-23T16:31:35.534Z,6.93
2023-05-23T16:36:48.673Z,6.50
2023-05-23T16:39:30.589Z,6.45
2023-05-23T16:42:03.046Z,6.57
2023-05-23T16:44:33.837Z,7.05
2023-05-23T16:49:41.952Z,6.57
2023-05-23T16:54:50.057Z,6.88
2023-05-23T16:57:17.762Z,6.45
2023-05-23T16:59:52.982Z,6.97
2023-05-23T17:02:20.575Z,7.15
2023-05-23T17:04:50.720Z,7.70
2023-05-23T17:10:09.580Z,6.90
2023-05-23T17:12:38.861Z,7.55
2023-05-23T17:15:16.564Z,7.10
2023-05-23T17:17:54.867Z,6.68
2023-05-23T17:20:28.065Z,6.47
2023-05-23T17:23:04.594Z,6.68
2023-05-23T17:25:35.320Z,7.38
2023-05-23T17:30:53.426Z,6.80
2023-05-23T17:36:02.405Z,7.60
2023-05-23T17:38:32.775Z,7.20
2023-05-23T17:41:05.069Z,6.78
2023-05-23T17:43:34.936Z,6.90
2023-05-23T17:46:01.882Z,6.88
2023-05-23T17:51:21.559Z,6.97
2023-05-23T17:54:07.204Z,6.85
2023-05-23T17:56:34.179Z,7.40
2023-05-23T17:59:15.377Z,7.35
2023-05-23T18:01:50.345Z,6.82
2023-05-23T18:04:22.232Z,7.15
2023-05-23T18:06:58.479Z,7.13
2023-05-23T18:09:27.236Z,6.75
2023-05-23T18:12:06.455Z,7.22
2023-05-23T18:14:46.414Z,7.10
2023-05-23T18:17:23.305Z,7.70
2023-05-23T18:19:58.792Z,7.47
2023-05-23T18:22:26.267Z,7.60
2023-05-23T18:25:08.796Z,7.35
2023-05-23T18:27:44.981Z,7.40
2023-05-23T18:30:20.697Z,7.65
2023-05-23T18:32:49.211Z,7.53
2023-05-23T18:35:16.527Z,7.80
2023-05-23T18:37:52.479Z,7.43
2023-05-23T18:43:11.989Z,7.38
2023-05-23T18:45:46.884Z,7.40
2023-05-23T18:48:19.524Z,8.15
2023-05-23T18:50:58.095Z,7.38
2023-05-23T18:53:24.831Z,8.65
2023-05-23T18:55:52.936Z,7.55
2023-05-23T18:58:21.348Z,7.50
2023-05-23T19:00:55.125Z,7.10
2023-05-23T19:03:30.461Z,7.20
2023-05-23T19:06:11.440Z,6.97
2023-05-23T19:11:21.656Z,7.60
2023-05-23T19:13:48.564Z,7.63
2023-05-23T19:16:22.346Z,7.45
2023-05-23T19:19:05.877Z,7.57
2023-05-23T19:21:43.824Z,7.45
2023-05-23T19:24:13.690Z,7.00
2023-05-23T19:26:46.043Z,7.03
2023-05-23T19:32:06.831Z,7.07
2023-05-23T19:37:17.049Z,7.32
2023-05-23T19:39:49.834Z,7.30
2023-05-23T19:42:26.316Z,6.40
2023-05-23T19:50:17.176Z,6.63
2023-05-23T19:52:44.724Z,6.55
2023-05-23T19:55:15.008Z,6.43
2023-05-23T20:00:25.930Z,5.97
2023-05-23T20:02:53.069Z,5.65
2023-05-23T20:08:07.923Z,5.88
2023-05-23T20:10:37.251Z,5.63
2023-05-23T20:13:11.990Z,5.00
2023-05-23T20:15:43.475Z,5.57
2023-05-23T20:18:30.244Z,5.32
2023-05-23T20:20:59.632Z,5.10
2023-05-23T20:26:10.135Z,4.97
2023-05-23T20:28:38.002Z,5.07
2023-05-23T20:31:17.959Z,4.90
2023-05-23T20:33:47.969Z,5.10
2023-05-23T20:36:25.784Z,5.22
2023-05-23T20:44:20.908Z,5.00
2023-05-23T20:49:38.099Z,5.07
2023-05-23T20:52:12.843Z,5.03
2023-05-23T21:00:17.555Z,4.28
2023-05-23T21:02:47.839Z,4.32
2023-05-23T21:05:25.967Z,4.50
2023-05-23T21:07:55.179Z,4.60
2023-05-23T21:10:24.323Z,4.22
2023-05-23T21:13:07.348Z,4.50
2023-05-23T21:15:37.486Z,4.00
2023-05-23T21:18:14.017Z,4.30
2023-05-23T21:20:43.273Z,4.53
2023-05-23T21:23:26.413Z,7.18
2023-05-23T21:25:58.989Z,4.90
2023-05-23T21:28:37.283Z,4.57
2023-05-23T21:31:21.602Z,4.43
2023-05-23T21:33:56.265Z,4.40
2023-05-23T21:36:36.248Z,4.53
2023-05-23T21:39:15.348Z,4.32
2023-05-23T21:41:49.458Z,4.75
2023-05-23T21:44:24.002Z,4.78
2023-05-23T21:47:00.067Z,4.38
2023-05-23T21:49:35.865Z,4.20
2023-05-23T21:52:07.345Z,4.47
2023-05-23T21:54:51.394Z,4.18
2023-05-23T21:57:29.406Z,4.20
2023-05-23T22:00:07.600Z,3.90
2023-05-23T22:02:34.842Z,4.22
2023-05-23T22:05:17.112Z,3.65
2023-05-23T22:07:46.535Z,4.00
2023-05-23T22:10:23.619Z,4.20
2023-05-23T22:12:54.633Z,4.63
2023-05-23T22:15:22.190Z,4.30
2023-05-23T22:17:50.220Z,4.13
2023-05-23T22:20:17.487Z,4.22
2023-05-23T22:23:05.588Z,4.47
2023-05-23T22:25:33.504Z,4.40
2023-05-23T22:28:08.449Z,4.40
2023-05-23T22:30:44.945Z,4.25
2023-05-23T22:33:24.625Z,3.97
2023-05-23T22:36:03.088Z,4.05
2023-05-23T22:38:38.694Z,4.53
2023-05-23T22:41:12.332Z,4.20
2023-05-23T22:43:39.809Z,4.95
2023-05-23T22:46:10.663Z,5.38
2023-05-23T22:48:38.683Z,4.63
2023-05-23T22:51:14.886Z,4.80
2023-05-23T22:53:50.012Z,4.82
2023-05-23T22:56:19.384Z,4.47
2023-05-23T22:58:47.960Z,4.88
2023-05-23T23:04:05.818Z,4.70
2023-05-23T23:06:44.929Z,4.65
2023-05-23T23:09:20.644Z,4.90
2023-05-23T23:11:50.099Z,5.13
2023-05-23T23:14:29.419Z,4.70
2023-05-23T23:17:03.469Z,5.10
2023-05-23T23:19:42.160Z,5.05
2023-05-23T23:27:41.425Z,4.40
2023-05-23T23:33:00.235Z,4.32
2023-05-23T23:35:39.916Z,4.50
2023-05-23T23:38:06.909Z,4.82
2023-05-23T23:40:42.452Z,5.15
2023-05-23T23:43:09.308Z,4.95
2023-05-23T23:45:39.987Z,4.57
2023-05-23T23:48:10.636Z,4.50
2023-05-23T23:50:38.127Z,4.95
2023-05-23T23:53:16.915Z,4.20
2023-05-23T23:55:47.746Z,4.68
2023-05-23T23:58:18.734Z,4.63
